Main page
METAR-TAF:

METAR-TAF

Airports :

Taos Regional Airport

Taos, New Mexico, United States

latitude: 36-27N, longitude: 105-40W, elevation: 7088 ft

Current weather observation

The report was made 54 minutes ago, at 12:56 UTC
Wind 8 mph from the North
Temperature 57°F
Humidity 67%
Pressure 30.42 in. Hg
Visibility: 10 miles
Clear sky

METAR: KSKX 171256Z AUTO 36007KT 10SM CLR 14/08 A3042 RMK AO2 SLP233 T01440083

Time: 07:50 (13:50 UTC)


TAF: missing

Weather observations and forecasts of more than 4000 airports (METAR and TAF reports).

The available stations are represented by yellow and red dots on the map.

Hover mouse over dot to see the name of the station.

Then click to see weather observations and forecasts.

To change the map : click on the green buttons with a black cross to zoom in, on the green button with a dash to zoom out, or on the green arrows for adjacent maps.


METAR-TAF: